createdAt,value
2022-08-27T00:00:54.030Z,22.00
2022-08-27T00:03:23.219Z,21.90
2022-08-27T00:05:52.578Z,21.90
2022-08-27T00:08:21.627Z,21.90
2022-08-27T00:10:51.039Z,21.90
2022-08-27T00:13:20.089Z,21.90
2022-08-27T00:15:50.535Z,22.00
2022-08-27T00:18:22.673Z,22.00
2022-08-27T00:20:52.477Z,22.10
2022-08-27T00:23:21.612Z,22.10
2022-08-27T00:25:50.987Z,22.20
2022-08-27T00:28:20.501Z,22.20
2022-08-27T00:30:51.172Z,22.00
2022-08-27T00:33:21.446Z,21.90
2022-08-27T00:35:50.972Z,21.90
2022-08-27T00:38:22.977Z,21.90
2022-08-27T00:40:53.378Z,22.00
2022-08-27T00:43:25.025Z,22.00
2022-08-27T00:46:04.797Z,22.00
2022-08-27T00:48:37.300Z,22.10
2022-08-27T00:51:08.046Z,22.00
2022-08-27T00:53:37.196Z,22.10
2022-08-27T00:56:12.230Z,22.10
2022-08-27T00:58:45.982Z,22.10
2022-08-27T01:01:21.519Z,22.10
2022-08-27T01:03:54.444Z,22.00
2022-08-27T01:06:27.481Z,22.00
2022-08-27T01:09:02.335Z,22.10
2022-08-27T01:11:32.320Z,22.10
2022-08-27T01:14:01.824Z,22.10
2022-08-27T01:16:37.528Z,22.10
2022-08-27T01:19:10.953Z,22.00
2022-08-27T01:21:49.526Z,22.00
2022-08-27T01:24:45.761Z,22.00
2022-08-27T01:27:19.696Z,22.00
2022-08-27T01:29:49.277Z,22.00
2022-08-27T01:32:22.102Z,22.10
2022-08-27T01:34:52.359Z,22.00
2022-08-27T01:37:23.744Z,22.00
2022-08-27T01:39:57.100Z,22.10
2022-08-27T01:42:33.481Z,22.20
2022-08-27T01:45:06.921Z,22.20
2022-08-27T01:47:38.594Z,22.10
2022-08-27T01:50:14.814Z,22.20
2022-08-27T01:52:44.156Z,22.20
2022-08-27T01:55:19.139Z,22.20
2022-08-27T01:57:48.799Z,22.10
2022-08-27T02:00:24.465Z,22.10
2022-08-27T02:02:54.135Z,22.10
2022-08-27T02:05:24.512Z,22.10
2022-08-27T02:07:54.343Z,22.10
2022-08-27T02:10:30.831Z,22.10
2022-08-27T02:13:00.305Z,22.10
2022-08-27T02:15:30.548Z,22.10
2022-08-27T02:17:59.754Z,22.10
2022-08-27T02:20:29.575Z,22.00
2022-08-27T02:22:59.375Z,22.10
2022-08-27T02:25:30.038Z,22.10
2022-08-27T02:28:00.627Z,22.10
2022-08-27T02:30:32.953Z,22.10
2022-08-27T02:33:02.694Z,22.00
2022-08-27T02:35:34.797Z,22.00
2022-08-27T02:38:03.927Z,22.10
2022-08-27T02:40:35.008Z,22.10
2022-08-27T02:43:04.334Z,22.10
2022-08-27T02:45:33.564Z,22.00
2022-08-27T02:48:05.509Z,21.90
2022-08-27T02:50:35.137Z,21.90
2022-08-27T02:53:06.793Z,22.00
2022-08-27T02:55:37.670Z,22.00
2022-08-27T02:58:07.020Z,22.10
2022-08-27T03:00:36.881Z,22.00
2022-08-27T03:03:05.995Z,22.00
2022-08-27T03:05:35.089Z,22.00
2022-08-27T03:08:04.695Z,21.90
2022-08-27T03:10:33.918Z,21.90
2022-08-27T03:13:04.619Z,21.90
2022-08-27T03:15:33.742Z,22.00
2022-08-27T03:18:21.698Z,21.90
2022-08-27T03:20:53.236Z,21.80
2022-08-27T03:23:25.719Z,21.80
2022-08-27T03:25:58.793Z,21.90
2022-08-27T03:28:33.318Z,21.90
2022-08-27T03:31:07.871Z,21.80
2022-08-27T03:33:40.446Z,21.80
2022-08-27T03:36:10.668Z,21.80
2022-08-27T03:38:40.201Z,21.80
2022-08-27T03:41:09.916Z,21.70
2022-08-27T03:43:40.653Z,21.50
2022-08-27T03:46:09.912Z,21.50
2022-08-27T03:48:39.183Z,21.50
2022-08-27T03:51:11.664Z,21.50
2022-08-27T03:53:43.365Z,21.50
2022-08-27T03:56:12.994Z,21.50
2022-08-27T03:58:43.484Z,21.50
2022-08-27T04:01:12.561Z,21.50
2022-08-27T04:03:41.643Z,21.60
2022-08-27T04:06:10.808Z,21.60
2022-08-27T04:08:39.919Z,21.70
2022-08-27T04:11:09.369Z,21.70
2022-08-27T04:13:38.715Z,21.60
2022-08-27T04:16:09.391Z,21.60
2022-08-27T04:18:39.246Z,21.60
2022-08-27T04:21:11.205Z,21.60
2022-08-27T04:23:40.706Z,21.60
2022-08-27T04:26:12.821Z,21.50
2022-08-27T04:28:42.053Z,21.50
2022-08-27T04:31:20.088Z,21.50
2022-08-27T04:33:50.601Z,21.50
2022-08-27T04:36:21.227Z,21.50
2022-08-27T04:38:50.906Z,21.60
2022-08-27T04:41:33.386Z,21.50
2022-08-27T04:44:07.190Z,21.50
2022-08-27T04:46:41.319Z,21.40
2022-08-27T04:49:17.836Z,21.40
2022-08-27T04:51:47.039Z,21.40
2022-08-27T04:54:17.967Z,21.40
2022-08-27T04:56:51.707Z,21.20
2022-08-27T04:59:20.871Z,21.30
2022-08-27T05:01:51.740Z,21.40
2022-08-27T05:04:20.894Z,21.40
2022-08-27T05:06:50.708Z,21.50
2022-08-27T05:09:24.586Z,21.50
2022-08-27T05:11:56.534Z,21.50
2022-08-27T05:14:30.165Z,21.40
2022-08-27T05:17:01.220Z,21.40
2022-08-27T05:19:30.514Z,21.40
2022-08-27T05:21:59.587Z,21.40
2022-08-27T05:24:28.887Z,21.40
2022-08-27T05:26:57.971Z,21.40
2022-08-27T05:29:27.051Z,21.40
2022-08-27T05:31:56.389Z,21.40
2022-08-27T05:34:26.879Z,21.40
2022-08-27T05:36:56.406Z,21.50
2022-08-27T05:39:25.502Z,21.50
2022-08-27T05:41:58.547Z,21.50
2022-08-27T05:44:42.989Z,21.60
2022-08-27T05:47:12.382Z,21.50
2022-08-27T05:49:42.787Z,21.60
2022-08-27T05:52:13.468Z,21.60
2022-08-27T05:54:42.547Z,21.40
2022-08-27T05:57:11.781Z,21.50
2022-08-27T05:59:58.435Z,21.50
2022-08-27T06:02:28.309Z,21.60
2022-08-27T06:04:58.970Z,21.50
2022-08-27T06:07:29.803Z,21.60
2022-08-27T06:09:59.178Z,21.60
2022-08-27T06:12:29.575Z,21.60
2022-08-27T06:14:58.991Z,21.70
2022-08-27T06:17:28.578Z,21.70
2022-08-27T06:19:59.368Z,21.60
2022-08-27T06:22:28.547Z,21.50
2022-08-27T06:24:58.667Z,21.50
2022-08-27T06:27:28.053Z,21.60
2022-08-27T06:29:57.318Z,21.40
2022-08-27T06:32:26.573Z,21.40
2022-08-27T06:34:55.668Z,21.50
2022-08-27T06:37:27.309Z,21.50
2022-08-27T06:39:56.504Z,21.60
2022-08-27T06:42:25.708Z,21.60
2022-08-27T06:44:55.477Z,21.60
2022-08-27T06:47:24.660Z,21.50
2022-08-27T06:49:53.788Z,21.50
2022-08-27T06:52:22.928Z,21.50
2022-08-27T06:54:53.405Z,21.70
2022-08-27T06:57:24.644Z,21.80
2022-08-27T06:59:54.113Z,21.80
2022-08-27T07:02:23.422Z,21.80
2022-08-27T07:04:54.628Z,21.90
2022-08-27T07:07:32.675Z,21.90
2022-08-27T07:10:08.838Z,21.80
2022-08-27T07:12:38.245Z,21.80
2022-08-27T07:15:09.094Z,21.80
2022-08-27T07:17:38.199Z,21.90
2022-08-27T07:20:09.667Z,21.80
2022-08-27T07:22:41.702Z,21.80
2022-08-27T07:25:18.744Z,21.90
2022-08-27T07:27:48.870Z,21.90
2022-08-27T07:30:19.562Z,22.00
2022-08-27T07:32:48.906Z,22.00
2022-08-27T07:35:18.681Z,22.10
2022-08-27T07:37:48.477Z,22.10
2022-08-27T07:40:19.640Z,22.10
2022-08-27T07:43:06.439Z,22.10
2022-08-27T07:45:36.174Z,22.10
2022-08-27T07:48:05.607Z,22.00
2022-08-27T07:50:35.744Z,22.00
2022-08-27T07:53:04.963Z,22.00
2022-08-27T07:55:38.575Z,21.90
2022-08-27T07:58:11.063Z,21.80
2022-08-27T08:00:43.649Z,21.60
2022-08-27T08:03:14.378Z,21.40
2022-08-27T08:05:44.385Z,21.30
2022-08-27T08:08:13.591Z,21.30
2022-08-27T08:10:44.247Z,21.50
2022-08-27T08:13:13.498Z,21.60
2022-08-27T08:15:45.375Z,21.70
2022-08-27T08:18:15.535Z,21.70
2022-08-27T08:20:57.733Z,21.60
2022-08-27T08:23:28.074Z,21.60
2022-08-27T08:25:58.654Z,21.50
2022-08-27T08:28:29.102Z,21.50
2022-08-27T08:30:59.293Z,21.60
2022-08-27T08:33:28.697Z,21.60
2022-08-27T08:36:05.784Z,21.70
2022-08-27T08:38:35.634Z,21.70
2022-08-27T08:41:08.927Z,21.70
2022-08-27T08:43:43.947Z,21.70
2022-08-27T08:46:18.728Z,21.70
2022-08-27T08:48:54.140Z,21.70
2022-08-27T08:51:31.321Z,21.60
2022-08-27T08:54:06.613Z,21.60
2022-08-27T08:56:47.072Z,21.50
2022-08-27T08:59:26.106Z,21.50
2022-08-27T09:01:55.388Z,21.40
2022-08-27T09:04:27.214Z,21.40
2022-08-27T09:07:02.729Z,21.40
2022-08-27T09:09:39.246Z,21.50
2022-08-27T09:12:19.147Z,21.50
2022-08-27T09:14:53.924Z,21.60
2022-08-27T09:17:23.629Z,21.60
2022-08-27T09:19:55.046Z,21.60
2022-08-27T09:22:35.136Z,21.60
2022-08-27T09:25:12.801Z,21.70
2022-08-27T09:27:44.691Z,21.60
2022-08-27T09:30:21.672Z,21.70
2022-08-27T09:32:56.790Z,21.70
2022-08-27T09:35:28.811Z,21.70
2022-08-27T09:37:59.058Z,21.70
2022-08-27T09:40:33.544Z,21.70
2022-08-27T09:43:10.492Z,21.60
2022-08-27T09:45:49.100Z,21.40
2022-08-27T09:48:23.111Z,21.40
2022-08-27T09:50:56.486Z,21.40
2022-08-27T09:53:31.041Z,21.50
2022-08-27T09:56:03.454Z,21.50
2022-08-27T09:58:50.264Z,21.50
2022-08-27T10:01:22.427Z,21.40
2022-08-27T10:03:52.005Z,21.50
2022-08-27T10:06:28.567Z,21.40
2022-08-27T10:09:07.092Z,21.50
2022-08-27T10:11:41.380Z,21.50
2022-08-27T10:14:19.510Z,21.60
2022-08-27T10:17:02.203Z,21.70
2022-08-27T10:20:00.451Z,21.70
2022-08-27T10:22:47.495Z,21.70
2022-08-27T10:25:29.863Z,21.60
2022-08-27T10:28:16.340Z,21.60
2022-08-27T10:31:13.104Z,21.60
2022-08-27T10:34:01.204Z,21.60
2022-08-27T10:36:51.380Z,21.80
2022-08-27T10:39:48.112Z,21.90
2022-08-27T10:42:26.647Z,21.90
2022-08-27T10:45:08.137Z,21.90
2022-08-27T10:48:00.815Z,21.90
2022-08-27T10:50:38.558Z,21.90
2022-08-27T10:53:24.447Z,22.00
2022-08-27T10:56:08.385Z,22.10
2022-08-27T10:58:51.306Z,22.10
2022-08-27T11:01:29.084Z,22.10
2022-08-27T11:04:06.365Z,22.10
2022-08-27T11:06:41.267Z,22.20
2022-08-27T11:09:17.586Z,22.10
2022-08-27T11:12:13.332Z,22.20
2022-08-27T11:14:49.387Z,22.30
2022-08-27T11:17:32.045Z,22.40
2022-08-27T11:20:09.582Z,22.40
2022-08-27T11:22:46.153Z,22.40
2022-08-27T11:25:40.511Z,22.50
2022-08-27T11:28:14.587Z,22.50
2022-08-27T11:30:58.475Z,22.50
2022-08-27T11:33:36.693Z,22.50
2022-08-27T11:36:47.669Z,22.60
2022-08-27T11:39:41.219Z,22.60
2022-08-27T11:42:15.665Z,22.70
2022-08-27T11:44:48.492Z,22.80
2022-08-27T11:47:22.862Z,22.80
2022-08-27T11:49:55.929Z,22.90
2022-08-27T11:52:30.997Z,22.90
2022-08-27T11:55:16.121Z,23.00
2022-08-27T11:57:46.079Z,23.00
2022-08-27T12:00:20.093Z,23.00
2022-08-27T12:02:59.758Z,23.00
2022-08-27T12:05:39.896Z,23.10
2022-08-27T12:08:31.133Z,23.10
2022-08-27T12:11:15.169Z,23.20
2022-08-27T12:13:59.312Z,23.10
2022-08-27T12:16:38.330Z,23.10
2022-08-27T12:19:22.798Z,23.10
2022-08-27T12:22:28.276Z,23.00
2022-08-27T12:25:00.253Z,23.00
2022-08-27T12:27:34.557Z,23.10
2022-08-27T12:30:20.653Z,23.20
2022-08-27T12:32:53.149Z,23.20
2022-08-27T12:35:27.014Z,23.30
2022-08-27T12:38:08.645Z,23.30
2022-08-27T12:40:43.960Z,23.30
2022-08-27T12:43:19.131Z,23.30
2022-08-27T12:45:53.099Z,23.40
2022-08-27T12:48:28.163Z,23.30
2022-08-27T12:51:02.121Z,23.40
2022-08-27T12:53:46.904Z,23.50
2022-08-27T12:56:49.707Z,23.50
2022-08-27T12:59:41.124Z,23.50
2022-08-27T13:02:28.424Z,23.60
2022-08-27T13:04:59.061Z,23.70
2022-08-27T13:07:33.054Z,23.70
2022-08-27T13:10:15.056Z,23.70
2022-08-27T13:12:47.299Z,23.70
2022-08-27T13:15:20.421Z,23.70
2022-08-27T13:17:52.718Z,23.70
2022-08-27T13:20:25.614Z,23.70
2022-08-27T13:22:58.188Z,23.70
2022-08-27T13:25:33.161Z,23.80
2022-08-27T13:28:11.763Z,23.90
2022-08-27T13:30:45.571Z,24.00
2022-08-27T13:33:21.260Z,24.00
2022-08-27T13:35:50.902Z,24.00
2022-08-27T13:38:23.063Z,23.90
2022-08-27T13:41:16.485Z,24.00
2022-08-27T13:43:49.340Z,24.00
2022-08-27T13:46:22.756Z,24.00
2022-08-27T13:48:54.750Z,24.10
2022-08-27T13:51:30.800Z,24.10
2022-08-27T13:54:14.452Z,24.10
2022-08-27T13:57:03.794Z,24.20
2022-08-27T13:59:35.024Z,24.20
2022-08-27T14:02:22.140Z,24.30
2022-08-27T14:05:06.904Z,24.30
2022-08-27T14:07:38.937Z,24.30
2022-08-27T14:10:25.779Z,24.30
2022-08-27T14:13:00.571Z,24.30
2022-08-27T14:15:35.763Z,24.30
2022-08-27T14:18:10.405Z,24.30
2022-08-27T14:20:39.637Z,24.30
2022-08-27T14:23:08.782Z,24.30
2022-08-27T14:25:37.911Z,24.30
2022-08-27T14:28:07.040Z,24.40
2022-08-27T14:30:37.866Z,24.40
2022-08-27T14:33:07.407Z,24.40
2022-08-27T14:35:40.259Z,24.40
2022-08-27T14:38:18.499Z,24.40
2022-08-27T14:40:49.192Z,24.40
2022-08-27T14:43:18.607Z,24.20
2022-08-27T14:45:50.420Z,24.10
2022-08-27T14:48:28.871Z,24.20
2022-08-27T14:50:59.727Z,24.20
2022-08-27T14:53:29.403Z,24.00
2022-08-27T14:56:01.650Z,24.10
2022-08-27T14:58:30.930Z,24.00
2022-08-27T15:01:01.368Z,24.00
2022-08-27T15:03:34.341Z,24.00
2022-08-27T15:06:03.404Z,24.00
2022-08-27T15:08:32.651Z,24.10
2022-08-27T15:11:03.408Z,24.10
2022-08-27T15:13:33.087Z,24.20
2022-08-27T15:16:04.399Z,24.20
2022-08-27T15:18:33.617Z,24.30
2022-08-27T15:21:02.875Z,24.30
2022-08-27T15:23:32.377Z,24.30
2022-08-27T15:26:01.651Z,24.30
2022-08-27T15:28:31.158Z,24.30
2022-08-27T15:31:00.685Z,24.30
2022-08-27T15:33:31.317Z,24.40
2022-08-27T15:36:04.023Z,24.50
2022-08-27T15:38:33.820Z,24.40
2022-08-27T15:41:03.095Z,24.40
2022-08-27T15:43:32.597Z,24.30
2022-08-27T15:46:02.141Z,24.40
2022-08-27T15:48:33.227Z,24.40
2022-08-27T15:51:06.951Z,24.40
2022-08-27T15:53:37.077Z,24.40
2022-08-27T15:56:08.180Z,24.30
2022-08-27T15:58:38.718Z,24.40
2022-08-27T16:01:13.708Z,24.30
2022-08-27T16:03:46.826Z,24.30
2022-08-27T16:06:19.448Z,24.40
2022-08-27T16:08:48.777Z,24.40
2022-08-27T16:11:18.029Z,24.30
2022-08-27T16:13:47.165Z,24.30
2022-08-27T16:16:17.475Z,24.30
2022-08-27T16:18:48.156Z,24.20
2022-08-27T16:21:17.350Z,24.20
2022-08-27T16:23:46.682Z,24.10
2022-08-27T16:26:16.487Z,24.00
2022-08-27T16:28:45.785Z,23.70
2022-08-27T16:31:15.358Z,23.70
2022-08-27T16:33:44.973Z,23.60
2022-08-27T16:36:15.835Z,23.40
2022-08-27T16:38:45.130Z,23.40
2022-08-27T16:41:14.670Z,23.20
2022-08-27T16:43:44.239Z,23.20
2022-08-27T16:46:13.405Z,23.10
2022-08-27T16:49:01.644Z,23.10
2022-08-27T16:51:35.070Z,23.20
2022-08-27T16:54:06.663Z,22.90
2022-08-27T16:56:37.953Z,23.00
2022-08-27T16:59:08.013Z,23.00
2022-08-27T17:01:37.721Z,23.00
2022-08-27T17:04:22.621Z,23.20
2022-08-27T17:06:59.014Z,23.20
2022-08-27T17:09:28.642Z,23.20
2022-08-27T17:12:03.837Z,23.30
2022-08-27T17:14:38.051Z,23.40
2022-08-27T17:17:09.442Z,23.40
2022-08-27T17:19:41.726Z,23.40
2022-08-27T17:22:14.051Z,23.40
2022-08-27T17:24:43.342Z,23.20
2022-08-27T17:27:18.661Z,23.30
2022-08-27T17:29:48.093Z,23.30
2022-08-27T17:32:18.275Z,23.30
2022-08-27T17:34:47.861Z,23.30
2022-08-27T17:37:18.878Z,23.40
2022-08-27T17:39:48.581Z,23.40
2022-08-27T17:42:18.094Z,23.40
2022-08-27T17:44:47.265Z,23.40
2022-08-27T17:47:16.769Z,23.30
2022-08-27T17:49:46.078Z,23.30
2022-08-27T17:52:18.286Z,23.30
2022-08-27T17:54:51.097Z,23.30
2022-08-27T17:57:23.489Z,23.30
2022-08-27T17:59:53.805Z,23.30
2022-08-27T18:02:29.562Z,23.30
2022-08-27T18:04:58.986Z,23.30
2022-08-27T18:07:30.090Z,23.30
2022-08-27T18:09:59.709Z,23.30
2022-08-27T18:12:29.641Z,23.30
2022-08-27T18:15:07.465Z,23.30
2022-08-27T18:17:38.114Z,23.20
2022-08-27T18:20:15.022Z,23.10
2022-08-27T18:22:48.622Z,23.00
2022-08-27T18:25:20.372Z,23.00
2022-08-27T18:27:54.368Z,23.00
2022-08-27T18:30:24.480Z,22.90
2022-08-27T18:32:53.997Z,22.90
2022-08-27T18:35:25.772Z,22.90
2022-08-27T18:37:56.664Z,22.90
2022-08-27T18:40:30.266Z,22.80
2022-08-27T18:43:00.021Z,22.80
2022-08-27T18:45:30.351Z,22.80
2022-08-27T18:48:02.292Z,22.70
2022-08-27T18:50:31.581Z,22.70
2022-08-27T18:53:03.920Z,22.70
2022-08-27T18:55:33.132Z,22.60
2022-08-27T18:58:02.270Z,22.60
2022-08-27T19:00:31.463Z,22.60
2022-08-27T19:03:01.782Z,22.60
2022-08-27T19:05:31.264Z,22.50
2022-08-27T19:08:02.265Z,22.60
2022-08-27T19:10:31.970Z,22.60
2022-08-27T19:13:01.322Z,22.50
2022-08-27T19:15:31.138Z,22.40
2022-08-27T19:18:03.115Z,22.30
2022-08-27T19:20:32.755Z,22.30
2022-08-27T19:23:03.620Z,22.30
2022-08-27T19:25:33.258Z,22.20
2022-08-27T19:28:02.450Z,22.20
2022-08-27T19:30:32.114Z,22.30
2022-08-27T19:33:01.249Z,22.30
2022-08-27T19:35:30.566Z,22.20
2022-08-27T19:37:59.889Z,22.30
2022-08-27T19:40:31.400Z,22.20
2022-08-27T19:43:00.644Z,21.70
2022-08-27T19:45:34.150Z,22.10
2022-08-27T19:48:04.153Z,22.00
2022-08-27T19:50:33.434Z,22.00
2022-08-27T19:53:02.875Z,21.90
2022-08-27T19:55:33.478Z,21.90
2022-08-27T19:58:05.065Z,21.90
2022-08-27T20:00:35.693Z,21.80
2022-08-27T20:03:06.771Z,21.80
2022-08-27T20:05:36.158Z,21.70
2022-08-27T20:08:06.437Z,21.80
2022-08-27T20:10:39.031Z,21.70
2022-08-27T20:13:09.091Z,21.70
2022-08-27T20:15:38.710Z,21.70
2022-08-27T20:18:10.797Z,21.80
2022-08-27T20:20:41.251Z,21.80
2022-08-27T20:23:10.425Z,21.80
2022-08-27T20:25:42.332Z,21.80
2022-08-27T20:28:37.728Z,21.80
2022-08-27T20:31:03.629Z,21.80
2022-08-27T20:33:32.780Z,21.70
2022-08-27T20:36:03.119Z,21.70
2022-08-27T20:38:35.591Z,21.80
2022-08-27T20:41:07.534Z,21.70
2022-08-27T20:43:37.174Z,21.70
2022-08-27T20:46:06.644Z,21.60
2022-08-27T20:48:39.597Z,21.70
2022-08-27T20:51:09.014Z,21.70
2022-08-27T20:53:38.243Z,21.70
2022-08-27T20:56:09.094Z,21.80
2022-08-27T20:58:56.266Z,21.80
2022-08-27T21:01:25.794Z,21.80
2022-08-27T21:03:55.057Z,21.80
2022-08-27T21:06:26.551Z,21.80
2022-08-27T21:08:55.923Z,21.70
2022-08-27T21:11:27.422Z,21.80
2022-08-27T21:13:56.909Z,21.70
2022-08-27T21:16:26.359Z,21.70
2022-08-27T21:18:56.232Z,21.70
2022-08-27T21:21:25.838Z,21.60
2022-08-27T21:23:55.169Z,21.60
2022-08-27T21:26:24.304Z,21.60
2022-08-27T21:28:56.003Z,21.60
2022-08-27T21:31:26.182Z,21.50
2022-08-27T21:33:55.565Z,21.50
2022-08-27T21:36:25.000Z,21.60
2022-08-27T21:38:54.250Z,21.60
2022-08-27T21:41:24.071Z,21.70
2022-08-27T21:43:54.847Z,21.70
2022-08-27T21:46:23.977Z,21.60
2022-08-27T21:48:58.618Z,21.70
2022-08-27T21:51:28.283Z,21.60
2022-08-27T21:54:00.359Z,21.70
2022-08-27T21:56:29.982Z,21.60
2022-08-27T21:59:00.665Z,21.60
2022-08-27T22:01:29.941Z,21.60
2022-08-27T22:03:59.287Z,21.60
2022-08-27T22:06:28.732Z,21.60
2022-08-27T22:08:58.000Z,21.60
2022-08-27T22:11:27.562Z,21.60
2022-08-27T22:14:01.287Z,21.70
2022-08-27T22:16:30.592Z,21.60
2022-08-27T22:18:59.983Z,21.70
2022-08-27T22:21:29.218Z,21.70
2022-08-27T22:23:58.351Z,21.70
2022-08-27T22:26:27.529Z,21.70
2022-08-27T22:28:56.938Z,21.80
2022-08-27T22:31:27.578Z,21.70
2022-08-27T22:33:56.753Z,21.70
2022-08-27T22:36:25.931Z,21.70
2022-08-27T22:38:58.414Z,21.70
2022-08-27T22:41:32.598Z,21.60
2022-08-27T22:44:01.969Z,21.50
2022-08-27T22:46:32.505Z,21.40
2022-08-27T22:49:01.874Z,21.40
2022-08-27T22:51:30.951Z,21.40
2022-08-27T22:54:00.132Z,21.40
2022-08-27T22:56:29.290Z,21.40
2022-08-27T22:58:58.367Z,21.50
2022-08-27T23:01:27.818Z,21.50
2022-08-27T23:03:58.334Z,21.60
2022-08-27T23:06:27.458Z,21.60
2022-08-27T23:08:56.793Z,21.60
2022-08-27T23:11:25.782Z,21.60
2022-08-27T23:13:56.849Z,21.60
2022-08-27T23:16:26.497Z,21.60
2022-08-27T23:18:57.138Z,21.60
2022-08-27T23:21:26.219Z,21.60
2022-08-27T23:23:55.336Z,21.60
2022-08-27T23:26:42.082Z,21.60
2022-08-27T23:29:12.181Z,21.50
2022-08-27T23:31:42.669Z,21.50
2022-08-27T23:34:13.403Z,21.50
2022-08-27T23:36:42.499Z,21.50
2022-08-27T23:39:11.738Z,21.50
2022-08-27T23:41:42.310Z,21.50
2022-08-27T23:44:11.869Z,21.50
2022-08-27T23:46:41.062Z,21.50
2022-08-27T23:49:10.219Z,21.40
2022-08-27T23:51:41.525Z,21.40
2022-08-27T23:54:10.838Z,21.40
2022-08-27T23:56:39.879Z,21.50
2022-08-27T23:59:08.979Z,21.50
